Time;durP1;ratioP1;P1;durP2;ratioP2;P2;SDS_P1;SDS_P2;PMS_P1;PMS_P2;Temp;Humidity;BMP_temperature;BMP_pressure;BME280_temperature;BME280_humidity;BME280_pressure;Samples;Min_cycle;Max_cycle;Signal;HPM_P1;HPM_P2
2022/04/04 00:01:51;;;;;;;6.30;4.17;;;8.70;64.80;;;;;;5093965;28;20080;-62
2022/04/04 00:04:17;;;;;;;5.17;3.80;;;8.70;65.10;;;;;;5094068;28;20117;-62
2022/04/04 00:06:43;;;;;;;6.47;3.93;;;8.70;65.00;;;;;;5094060;28;20070;-63
2022/04/04 00:09:08;;;;;;;8.47;4.47;;;8.70;65.50;;;;;;5093908;28;20024;-62
2022/04/04 00:11:34;;;;;;;6.53;4.00;;;8.70;64.60;;;;;;5093827;28;20111;-63
2022/04/04 00:14:00;;;;;;;4.93;3.70;;;8.70;65.60;;;;;;5093930;28;20483;-63
2022/04/04 00:16:25;;;;;;;5.37;3.97;;;8.70;65.90;;;;;;5093877;28;20388;-63
2022/04/04 00:18:51;;;;;;;5.90;4.03;;;8.70;65.70;;;;;;5094269;28;20040;-63
2022/04/04 00:21:17;;;;;;;9.23;4.33;;;8.70;65.90;;;;;;5094186;28;20044;-62
2022/04/04 00:23:43;;;;;;;6.10;3.67;;;8.70;65.60;;;;;;5093751;28;20118;-62
2022/04/04 00:26:08;;;;;;;7.80;4.63;;;8.80;66.40;;;;;;5093551;28;20060;-62
2022/04/04 00:28:34;;;;;;;8.50;4.17;;;8.70;66.70;;;;;;5093792;28;20468;-62
2022/04/04 00:31:00;;;;;;;8.17;4.37;;;8.80;67.60;;;;;;5093916;28;20111;-62
2022/04/04 00:33:25;;;;;;;8.27;4.43;;;8.80;67.20;;;;;;5093683;28;20083;-63
2022/04/04 00:35:51;;;;;;;6.40;4.53;;;8.80;67.00;;;;;;5093681;28;20468;-62
2022/04/04 00:38:18;;;;;;;7.43;4.80;;;8.80;67.40;;;;;;5093224;28;20062;-63
2022/04/04 00:40:43;;;;;;;7.63;4.10;;;8.80;67.00;;;;;;5093556;28;20424;-63
2022/04/04 00:43:09;;;;;;;8.33;4.50;;;8.80;66.70;;;;;;5093477;28;20071;-63
2022/04/04 00:45:35;;;;;;;5.20;3.93;;;8.80;67.50;;;;;;5093531;28;20032;-63
2022/04/04 00:48:01;;;;;;;7.20;4.40;;;8.80;68.00;;;;;;5093327;28;20050;-62
2022/04/04 00:50:26;;;;;;;5.97;4.30;;;8.80;67.80;;;;;;5093476;28;20029;-63
2022/04/04 00:52:52;;;;;;;7.50;3.80;;;8.80;68.60;;;;;;5093386;28;20073;-63
2022/04/04 00:55:19;;;;;;;5.63;4.10;;;8.80;68.50;;;;;;5093181;28;20028;-63
2022/04/04 00:57:45;;;;;;;8.07;4.40;;;8.80;68.00;;;;;;5092066;28;20495;-63
2022/04/04 01:00:12;;;;;;;7.60;4.00;;;8.80;68.20;;;;;;5090564;28;20117;-63
2022/04/04 01:02:39;;;;;;;6.57;4.20;;;8.80;67.80;;;;;;5090489;28;20044;-63
2022/04/04 01:05:06;;;;;;;6.10;4.03;;;8.80;67.40;;;;;;5091785;28;20415;-63
2022/04/04 01:07:32;;;;;;;5.80;3.90;;;8.80;67.70;;;;;;5094991;28;20040;-64
2022/04/04 01:09:58;;;;;;;5.97;3.80;;;8.80;67.40;;;;;;5099892;28;20028;-63
2022/04/04 01:12:24;;;;;;;6.43;4.03;;;8.80;68.30;;;;;;5099734;28;20075;-62
2022/04/04 01:14:49;;;;;;;9.67;4.10;;;8.80;68.50;;;;;;5099670;28;20404;-62
2022/04/04 01:17:16;;;;;;;8.10;4.03;;;8.70;69.70;;;;;;5099792;28;20043;-62
2022/04/04 01:19:42;;;;;;;7.60;4.40;;;8.70;69.30;;;;;;5099835;28;20472;-62
2022/04/04 01:22:11;;;;;;;8.17;4.37;;;8.70;68.90;;;;;;5099384;28;20089;-63
2022/04/04 01:24:38;;;;;;;6.63;4.20;;;8.80;68.20;;;;;;5099578;28;20500;-62
2022/04/04 01:27:05;;;;;;;9.83;4.87;;;8.80;68.00;;;;;;5099740;28;20118;-63
2022/04/04 01:29:31;;;;;;;11.07;4.30;;;8.80;67.50;;;;;;5099487;28;20031;-63
2022/04/04 01:31:57;;;;;;;8.87;3.80;;;8.70;67.40;;;;;;5099839;28;20028;-62
2022/04/04 01:34:23;;;;;;;6.00;4.23;;;8.80;68.20;;;;;;5099591;28;20075;-62
2022/04/04 01:36:49;;;;;;;5.00;3.50;;;8.80;67.80;;;;;;5099303;28;20032;-62
2022/04/04 01:39:15;;;;;;;6.47;3.53;;;8.80;67.40;;;;;;5099670;28;20052;-62
2022/04/04 01:41:41;;;;;;;5.43;3.73;;;8.80;68.00;;;;;;5099788;28;20450;-63
2022/04/04 01:44:07;;;;;;;6.53;4.13;;;8.70;67.90;;;;;;5099256;28;20514;-63
2022/04/04 01:46:33;;;;;;;5.30;3.87;;;8.70;68.10;;;;;;5099700;28;20032;-63
2022/04/04 01:49:01;;;;;;;7.93;3.80;;;8.70;68.30;;;;;;5099604;28;20089;-63
2022/04/04 01:51:28;;;;;;;4.67;3.67;;;8.70;68.80;;;;;;5099337;28;20123;-62
2022/04/04 01:53:54;;;;;;;6.00;3.67;;;8.70;69.50;;;;;;5099144;28;20138;-63
2022/04/04 01:56:20;;;;;;;6.13;4.00;;;8.70;69.20;;;;;;5099571;28;20107;-63
2022/04/04 01:58:47;;;;;;;5.17;3.73;;;8.70;69.60;;;;;;5099392;28;20040;-63
2022/04/04 02:01:15;;;;;;;6.17;3.80;;;8.70;69.60;;;;;;5099553;28;20510;-66
2022/04/04 02:03:42;;;;;;;5.33;3.87;;;8.70;68.80;;;;;;5099430;28;20432;-63
2022/04/04 02:06:08;;;;;;;8.37;4.37;;;8.70;68.10;;;;;;5099236;28;20028;-64
2022/04/04 02:08:34;;;;;;;6.57;4.00;;;8.70;67.90;;;;;;5099218;28;20514;-62
2022/04/04 02:11:02;;;;;;;5.93;3.97;;;8.70;67.40;;;;;;5099276;28;20028;-63
2022/04/04 02:13:28;;;;;;;7.90;4.17;;;8.70;67.10;;;;;;5099067;28;20043;-62
2022/04/04 02:15:56;;;;;;;4.87;3.77;;;8.70;67.30;;;;;;5098921;28;20028;-62
2022/04/04 02:18:22;;;;;;;5.13;3.60;;;8.70;67.40;;;;;;5099105;28;20096;-62
2022/04/04 02:20:48;;;;;;;5.60;3.93;;;8.70;68.00;;;;;;5095285;28;20032;-63
2022/04/04 02:23:18;;;;;;;6.03;3.70;;;8.60;68.80;;;;;;5096008;28;20085;-63
2022/04/04 02:25:52;;;;;;;9.23;3.93;;;8.60;69.00;;;;;;5096266;28;20119;-63
2022/04/04 02:28:19;;;;;;;6.37;3.33;;;8.60;69.30;;;;;;5095931;28;20070;-63
2022/04/04 02:30:46;;;;;;;4.50;3.50;;;8.60;69.80;;;;;;5095865;28;20426;-62
2022/04/04 02:33:12;;;;;;;5.00;3.93;;;8.70;70.70;;;;;;5095718;28;20036;-63
2022/04/04 02:35:39;;;;;;;6.30;3.50;;;8.60;69.50;;;;;;5095448;28;20079;-63
2022/04/04 02:38:05;;;;;;;6.63;3.70;;;8.70;68.80;;;;;;5095613;28;20441;-62
2022/04/04 02:40:31;;;;;;;6.20;4.00;;;8.70;68.20;;;;;;5096064;28;20040;-63
2022/04/04 02:42:56;;;;;;;6.40;3.57;;;8.60;68.10;;;;;;5095767;28;20085;-62
2022/04/04 02:45:23;;;;;;;5.57;3.90;;;8.60;68.40;;;;;;5095649;28;20036;-63
2022/04/04 02:47:48;;;;;;;5.17;3.43;;;8.60;69.50;;;;;;5095734;28;20035;-63
2022/04/04 02:50:16;;;;;;;7.47;4.00;;;8.60;69.50;;;;;;5095412;28;20040;-63
2022/04/04 02:52:43;;;;;;;7.13;3.80;;;8.60;69.10;;;;;;5095341;28;20024;-62
2022/04/04 02:57:55;;;;;;;8.73;3.73;;;8.50;68.40;;;;;;5095710;28;20141;-63
2022/04/04 03:00:23;;;;;;;7.33;3.73;;;8.50;67.70;;;;;;5095333;28;20040;-63
2022/04/04 03:02:50;;;;;;;6.90;3.70;;;8.50;67.60;;;;;;5095461;28;20093;-62
2022/04/04 03:05:16;;;;;;;8.47;4.17;;;8.50;67.40;;;;;;5095123;28;20036;-62
2022/04/04 03:07:42;;;;;;;4.73;3.43;;;8.40;67.20;;;;;;5095396;28;20039;-63
2022/04/04 03:10:09;;;;;;;8.93;4.07;;;8.50;66.90;;;;;;5094977;28;20115;-63
2022/04/04 03:12:44;;;;;;;5.43;3.73;;;8.40;66.20;;;;;;5095060;28;20044;-63
2022/04/04 03:15:12;;;;;;;6.47;3.80;;;8.40;66.40;;;;;;5094818;28;20063;-62
2022/04/04 03:17:43;;;;;;;5.40;3.30;;;8.40;67.00;;;;;;5095116;28;20085;-62
2022/04/04 03:20:10;;;;;;;7.03;3.60;;;8.40;67.20;;;;;;5094879;28;20480;-63
2022/04/04 03:22:41;;;;;;;5.90;3.87;;;8.40;67.10;;;;;;5094943;28;20436;-62
2022/04/04 03:25:08;;;;;;;5.53;3.80;;;8.30;67.10;;;;;;5095001;28;20032;-62
2022/04/04 03:27:38;;;;;;;8.40;3.90;;;8.30;67.60;;;;;;5094643;28;20489;-65
2022/04/04 03:30:09;;;;;;;8.63;4.20;;;8.30;67.80;;;;;;5094679;28;20040;-63
2022/04/04 03:32:35;;;;;;;9.00;3.97;;;8.30;67.70;;;;;;5094462;28;20510;-62
2022/04/04 03:35:02;;;;;;;6.93;4.03;;;8.30;68.20;;;;;;5094357;28;20043;-63
2022/04/04 03:37:27;;;;;;;5.53;3.90;;;8.30;68.10;;;;;;5094519;28;20029;-63
2022/04/04 03:39:53;;;;;;;9.00;4.33;;;8.30;68.10;;;;;;5094549;28;20047;-65
2022/04/04 03:42:20;;;;;;;5.40;3.77;;;8.20;68.10;;;;;;5094575;28;20111;-62
2022/04/04 03:44:46;;;;;;;7.90;4.40;;;8.20;68.20;;;;;;5094491;28;20052;-62
2022/04/04 03:47:12;;;;;;;5.47;3.83;;;8.20;68.20;;;;;;5094369;28;20066;-63
2022/04/04 03:49:39;;;;;;;6.00;4.13;;;8.20;68.50;;;;;;5094358;28;20040;-63
2022/04/04 03:52:06;;;;;;;5.27;3.97;;;8.20;68.70;;;;;;5094169;28;20040;-62
2022/04/04 03:54:33;;;;;;;8.93;5.30;;;8.20;68.50;;;;;;5094031;28;20407;-63
2022/04/04 03:56:59;;;;;;;5.30;3.80;;;8.20;68.60;;;;;;5094436;28;20089;-62
2022/04/04 03:59:25;;;;;;;8.20;4.43;;;8.20;68.60;;;;;;5094296;28;20539;-63
2022/04/04 04:01:51;;;;;;;11.87;3.63;;;8.10;68.60;;;;;;5094296;28;20066;-63
2022/04/04 04:04:16;;;;;;;11.47;4.17;;;8.10;68.80;;;;;;5094088;28;20063;-62
2022/04/04 04:06:42;;;;;;;7.60;4.20;;;8.10;68.70;;;;;;5094128;28;20032;-62
2022/04/04 04:09:08;;;;;;;7.03;3.80;;;8.10;68.90;;;;;;5094066;28;20043;-63
2022/04/04 04:11:34;;;;;;;5.47;4.00;;;8.10;68.80;;;;;;5093812;28;20028;-63
2022/04/04 04:14:00;;;;;;;4.90;3.70;;;8.10;68.90;;;;;;5094057;28;20067;-62
2022/04/04 04:16:26;;;;;;;6.23;4.20;;;8.10;68.90;;;;;;5093944;28;20028;-62
2022/04/04 04:18:52;;;;;;;4.70;3.70;;;8.10;68.80;;;;;;5094077;28;20032;-66
2022/04/04 04:21:18;;;;;;;6.97;3.83;;;8.10;68.80;;;;;;5094414;28;20024;-63
2022/04/04 04:23:44;;;;;;;6.30;3.93;;;8.10;68.60;;;;;;5093640;28;20037;-63
2022/04/04 04:26:13;;;;;;;5.80;3.70;;;8.00;69.00;;;;;;5094023;28;20036;-62
2022/04/04 04:28:40;;;;;;;6.70;3.70;;;8.00;69.00;;;;;;5093787;28;20111;-62
2022/04/04 04:31:06;;;;;;;4.67;3.40;;;8.00;68.80;;;;;;5093787;28;20032;-62
2022/04/04 04:33:32;;;;;;;4.07;3.27;;;8.00;69.30;;;;;;5093322;28;20051;-63
2022/04/04 04:36:00;;;;;;;5.93;3.70;;;8.00;69.70;;;;;;5093884;28;20070;-63
2022/04/04 04:38:26;;;;;;;4.33;3.60;;;7.90;69.50;;;;;;5093405;28;20124;-63
2022/04/04 04:40:52;;;;;;;7.07;4.37;;;7.90;69.40;;;;;;5093717;28;20032;-62
2022/04/04 04:43:17;;;;;;;7.17;4.03;;;7.90;69.50;;;;;;5092876;28;20076;-62
2022/04/04 04:45:43;;;;;;;6.10;4.13;;;7.90;70.00;;;;;;5093654;28;20032;-63
2022/04/04 04:48:09;;;;;;;7.67;4.23;;;7.90;70.30;;;;;;5093501;28;20493;-63
2022/04/04 04:50:35;;;;;;;5.83;4.00;;;7.90;70.30;;;;;;5093327;28;20558;-63
2022/04/04 04:53:01;;;;;;;7.03;4.20;;;7.90;70.30;;;;;;5093133;28;20154;-63
2022/04/04 04:55:26;;;;;;;5.20;3.83;;;7.90;70.20;;;;;;5093456;28;20130;-62
2022/04/04 04:57:53;;;;;;;4.80;3.77;;;7.90;70.00;;;;;;5093662;28;20029;-63
2022/04/04 05:00:28;;;;;;;7.30;4.17;;;7.90;69.80;;;;;;5093325;28;20515;-62
2022/04/04 05:05:40;;;;;;;6.13;3.80;;;7.90;70.20;;;;;;5093488;28;20507;-62
2022/04/04 05:08:07;;;;;;;6.13;3.93;;;7.90;70.20;;;;;;5093312;28;20036;-63
2022/04/04 05:10:33;;;;;;;6.97;4.27;;;7.90;70.30;;;;;;5093323;28;20486;-63
2022/04/04 05:12:58;;;;;;;6.73;3.50;;;7.90;70.40;;;;;;5092987;28;20086;-63
2022/04/04 05:15:24;;;;;;;5.33;3.97;;;7.90;70.70;;;;;;5092881;28;20137;-63
2022/04/04 05:17:53;;;;;;;7.57;3.80;;;7.90;70.70;;;;;;5093100;28;20032;-62
2022/04/04 05:20:22;;;;;;;5.03;3.90;;;7.90;70.40;;;;;;5093232;28;20028;-63
2022/04/04 05:22:48;;;;;;;8.87;4.30;;;7.90;70.20;;;;;;5093352;28;20123;-63
2022/04/04 05:25:14;;;;;;;6.63;4.40;;;7.90;70.10;;;;;;5092953;28;20032;-63
2022/04/04 05:27:41;;;;;;;5.07;3.83;;;7.80;70.00;;;;;;5092976;28;20036;-62
2022/04/04 05:30:08;;;;;;;8.90;4.37;;;7.80;70.40;;;;;;5093110;28;20111;-63
2022/04/04 05:32:34;;;;;;;6.37;4.50;;;7.80;70.30;;;;;;5092998;28;20036;-63
2022/04/04 05:35:02;;;;;;;6.00;3.93;;;7.80;70.10;;;;;;5093044;28;20046;-62
2022/04/04 05:37:29;;;;;;;6.63;4.73;;;7.80;69.70;;;;;;5092896;28;20028;-63
2022/04/04 05:39:55;;;;;;;6.67;4.20;;;7.80;69.90;;;;;;5092801;28;20369;-62
2022/04/04 05:42:21;;;;;;;8.40;3.83;;;7.80;70.30;;;;;;5092885;28;20389;-63
2022/04/04 05:44:47;;;;;;;4.37;3.80;;;7.80;69.20;;;;;;5092992;28;20035;-62
2022/04/04 05:47:17;;;;;;;5.57;4.00;;;7.90;69.10;;;;;;5092598;28;20036;-63
2022/04/04 05:49:43;;;;;;;5.53;4.10;;;7.80;68.80;;;;;;5092808;28;20397;-63
2022/04/04 05:52:09;;;;;;;6.17;3.77;;;7.80;68.80;;;;;;5092861;28;20116;-62
2022/04/04 05:54:53;;;;;;;5.27;3.67;;;7.90;68.70;;;;;;5093710;28;20127;-62
2022/04/04 05:57:22;;;;;;;6.20;4.20;;;7.90;68.60;;;;;;5096426;28;20051;-62
2022/04/04 05:59:48;;;;;;;7.27;4.27;;;7.90;68.70;;;;;;5096104;28;20044;-62
2022/04/04 06:02:13;;;;;;;7.20;3.97;;;7.90;68.20;;;;;;5096398;28;20384;-62
2022/04/04 06:04:39;;;;;;;9.27;4.27;;;7.90;68.00;;;;;;5096396;28;20392;-62
2022/04/04 06:07:05;;;;;;;9.50;4.27;;;8.00;68.40;;;;;;5096712;28;20035;-62
2022/04/04 06:09:30;;;;;;;5.63;3.97;;;8.00;68.20;;;;;;5096568;28;20036;-63
2022/04/04 06:11:56;;;;;;;6.93;4.13;;;8.10;67.50;;;;;;5096521;28;20404;-62
2022/04/04 06:14:21;;;;;;;5.47;4.00;;;8.10;67.10;;;;;;5096217;28;20083;-62
2022/04/04 06:16:47;;;;;;;5.60;3.60;;;8.10;67.50;;;;;;5096581;28;20063;-62
2022/04/04 06:19:13;;;;;;;9.50;3.90;;;8.10;67.10;;;;;;5096246;28;20568;-62
2022/04/04 06:21:39;;;;;;;9.97;4.30;;;8.20;67.10;;;;;;5096185;28;20406;-62
2022/04/04 06:24:05;;;;;;;9.10;4.70;;;8.30;66.80;;;;;;5096344;28;20361;-62
2022/04/04 06:26:31;;;;;;;5.77;4.30;;;8.30;66.50;;;;;;5095992;28;20028;-62
2022/04/04 06:28:57;;;;;;;5.37;4.03;;;8.30;66.50;;;;;;5095923;28;20093;-63
2022/04/04 06:31:22;;;;;;;7.13;4.43;;;8.30;67.10;;;;;;5096348;28;20036;-62
2022/04/04 06:33:48;;;;;;;6.10;4.27;;;8.40;67.30;;;;;;5095894;28;20476;-62
2022/04/04 06:36:14;;;;;;;8.13;3.83;;;8.40;67.30;;;;;;5095598;28;20032;-67
2022/04/04 06:38:40;;;;;;;5.47;4.13;;;8.50;66.60;;;;;;5095330;28;20065;-67
2022/04/04 06:41:06;;;;;;;5.70;4.10;;;8.50;66.40;;;;;;5095826;28;20115;-68
2022/04/04 06:43:31;;;;;;;8.20;4.60;;;8.60;65.90;;;;;;5095743;28;20158;-67
2022/04/04 06:45:57;;;;;;;10.20;4.93;;;8.70;66.60;;;;;;5095479;28;20040;-69
2022/04/04 06:48:23;;;;;;;6.67;4.57;;;8.70;66.70;;;;;;5095582;28;20097;-66
2022/04/04 06:50:50;;;;;;;6.17;4.33;;;8.70;66.80;;;;;;5095437;28;20028;-67
2022/04/04 06:53:16;;;;;;;10.67;4.13;;;8.80;66.90;;;;;;5094314;28;20032;-66
2022/04/04 06:55:44;;;;;;;5.63;3.90;;;8.80;66.30;;;;;;5094462;28;20046;-65
2022/04/04 06:58:11;;;;;;;7.10;4.40;;;8.80;65.60;;;;;;5094967;28;20032;-65
2022/04/04 07:00:36;;;;;;;9.50;5.10;;;8.80;64.20;;;;;;5106666;28;20035;-65
2022/04/04 07:03:02;;;;;;;5.90;4.23;;;8.80;64.70;;;;;;5115207;28;20084;-66
2022/04/04 07:05:28;;;;;;;7.77;4.40;;;8.90;64.50;;;;;;5114822;28;20031;-65
2022/04/04 07:07:53;;;;;;;7.77;4.40;;;8.90;64.90;;;;;;5112159;28;20036;-66
2022/04/04 07:10:20;;;;;;;11.03;4.43;;;8.90;65.00;;;;;;5094960;28;20036;-65
2022/04/04 07:12:46;;;;;;;7.47;4.43;;;9.00;64.80;;;;;;5094689;28;20072;-66
2022/04/04 07:15:12;;;;;;;9.37;4.00;;;9.00;64.50;;;;;;5094490;28;20464;-66
2022/04/04 07:17:39;;;;;;;8.83;4.00;;;9.10;64.50;;;;;;5094962;28;20078;-66
2022/04/04 07:20:05;;;;;;;8.03;3.87;;;9.10;63.80;;;;;;5094480;28;20036;-66
2022/04/04 07:22:39;;;;;;;6.43;4.50;;;9.20;63.60;;;;;;5094687;28;20357;-66
2022/04/04 07:25:07;;;;;;;9.70;4.33;;;9.20;62.80;;;;;;5094884;28;20043;-66
2022/04/04 07:27:34;;;;;;;5.67;4.20;;;9.30;62.70;;;;;;5094660;28;20468;-66
2022/04/04 07:30:00;;;;;;;7.17;4.20;;;9.30;62.80;;;;;;5094509;28;20072;-66
2022/04/04 07:32:26;;;;;;;6.27;4.60;;;9.30;62.80;;;;;;5094729;28;20056;-66
2022/04/04 07:34:52;;;;;;;6.17;4.50;;;9.30;63.10;;;;;;5094152;28;20084;-66
2022/04/04 07:37:17;;;;;;;7.97;4.60;;;9.30;63.10;;;;;;5094075;28;20032;-67
2022/04/04 07:39:43;;;;;;;5.37;3.90;;;9.30;63.20;;;;;;5094198;28;20028;-65
2022/04/04 07:42:09;;;;;;;8.93;3.83;;;9.40;62.50;;;;;;5094143;28;20104;-66
2022/04/04 07:44:34;;;;;;;11.80;4.50;;;9.40;61.60;;;;;;5094174;28;20036;-66
2022/04/04 07:47:00;;;;;;;4.60;3.57;;;9.50;62.00;;;;;;5094207;28;20176;-66
2022/04/04 07:49:26;;;;;;;5.07;3.90;;;9.60;61.90;;;;;;5094050;28;20115;-65
2022/04/04 07:51:53;;;;;;;7.43;4.57;;;9.70;61.80;;;;;;5093562;28;20124;-66
2022/04/04 07:54:18;;;;;;;6.10;4.03;;;9.70;61.00;;;;;;5093613;28;20503;-66
2022/04/04 07:56:44;;;;;;;4.20;3.47;;;9.80;60.70;;;;;;5093892;28;20075;-66
2022/04/04 07:59:11;;;;;;;5.90;3.60;;;9.80;60.20;;;;;;5093863;28;20400;-66
2022/04/04 08:01:37;;;;;;;7.90;3.83;;;9.90;60.50;;;;;;5093775;28;20036;-66
2022/04/04 08:04:02;;;;;;;7.77;3.97;;;9.90;60.20;;;;;;5094063;28;20024;-66
2022/04/04 08:06:28;;;;;;;6.80;3.87;;;10.00;59.80;;;;;;5093765;28;20400;-66
2022/04/04 08:08:54;;;;;;;6.57;3.97;;;10.00;59.30;;;;;;5093954;28;20028;-66
2022/04/04 08:11:19;;;;;;;9.50;4.30;;;10.00;59.80;;;;;;5093607;28;20043;-66
2022/04/04 08:13:45;;;;;;;5.07;3.80;;;10.10;59.90;;;;;;5093766;28;20052;-66
2022/04/04 08:16:11;;;;;;;6.40;3.67;;;10.20;59.60;;;;;;5092895;28;20063;-66
2022/04/04 08:18:38;;;;;;;7.80;3.60;;;10.30;59.20;;;;;;5092546;28;20110;-66
2022/04/04 08:21:04;;;;;;;8.10;3.60;;;10.40;59.00;;;;;;5093912;28;20086;-66
2022/04/04 08:23:31;;;;;;;6.43;3.10;;;10.50;59.00;;;;;;5093652;28;20524;-66
2022/04/04 08:25:57;;;;;;;9.18;3.38;;;10.60;58.20;;;;;;5093878;28;20044;-66
2022/04/04 08:28:24;;;;;;;5.95;2.90;;;10.60;58.10;;;;;;5092945;28;20036;-67
2022/04/04 08:30:50;;;;;;;5.28;2.90;;;10.70;58.40;;;;;;5093448;28;20114;-67
2022/04/04 08:33:17;;;;;;;3.53;2.90;;;10.80;57.30;;;;;;5093811;28;20052;-66
2022/04/04 08:35:43;;;;;;;5.75;3.22;;;10.80;55.80;;;;;;5093826;28;20089;-66
2022/04/04 08:38:08;;;;;;;4.20;3.10;;;10.80;56.60;;;;;;5093371;28;20430;-66
2022/04/04 08:40:36;;;;;;;7.57;5.57;;;10.90;57.00;;;;;;5093650;28;20070;-66
2022/04/04 08:43:03;;;;;;;4.78;2.97;;;10.90;57.10;;;;;;5093507;28;20043;-66
2022/04/04 08:45:29;;;;;;;6.95;3.60;;;11.00;58.00;;;;;;5093730;28;20448;-65
2022/04/04 08:47:55;;;;;;;4.47;3.25;;;11.10;57.70;;;;;;5093634;28;20115;-66
2022/04/04 08:50:21;;;;;;;4.23;3.43;;;11.20;57.60;;;;;;5093378;28;20119;-66
2022/04/04 08:52:48;;;;;;;4.30;3.10;;;11.30;57.30;;;;;;5093527;28;20043;-66
2022/04/04 08:55:16;;;;;;;6.32;3.10;;;11.30;55.80;;;;;;5093207;28;20083;-66
2022/04/04 08:57:42;;;;;;;6.57;3.13;;;11.40;56.00;;;;;;5093313;28;20059;-65
2022/04/04 09:00:10;;;;;;;3.60;2.80;;;11.40;55.20;;;;;;5093406;28;20043;-67
2022/04/04 09:02:37;;;;;;;6.72;2.80;;;11.40;54.90;;;;;;5093013;28;20036;-67
2022/04/04 09:05:05;;;;;;;5.80;3.25;;;11.50;55.00;;;;;;5093313;28;20392;-68
2022/04/04 09:07:31;;;;;;;6.07;3.25;;;11.60;54.90;;;;;;5093124;28;20502;-67
2022/04/04 09:09:57;;;;;;;4.53;2.50;;;11.60;53.60;;;;;;5093450;28;20028;-67
2022/04/04 09:12:26;;;;;;;4.55;2.67;;;11.70;52.80;;;;;;5093219;28;20055;-68
2022/04/04 09:14:59;;;;;;;8.45;2.72;;;11.80;51.70;;;;;;5092942;28;20052;-67
2022/04/04 09:17:28;;;;;;;;;;;11.90;50.50;;;;;;5093689;28;20032;-67
2022/04/04 09:19:55;;;;;;;4.97;2.92;;;11.90;51.30;;;;;;5093163;28;20332;-67
2022/04/04 09:22:22;;;;;;;4.07;2.75;;;12.00;51.30;;;;;;5093378;28;20460;-68
2022/04/04 09:24:58;;;;;;;4.90;2.92;;;12.00;50.90;;;;;;5093011;28;20028;-68
2022/04/04 09:27:32;;;;;;;4.50;2.92;;;12.00;50.80;;;;;;5093043;28;20028;-67
2022/04/04 09:30:00;;;;;;;6.72;2.47;;;12.00;50.70;;;;;;5096431;28;20107;-68
2022/04/04 09:32:40;;;;;;;4.00;2.42;;;12.00;49.90;;;;;;5097157;28;20074;-67
2022/04/04 09:35:14;;;;;;;5.28;2.63;;;11.90;48.80;;;;;;5097038;28;20094;-68
2022/04/04 09:37:42;;;;;;;4.85;2.55;;;11.80;49.40;;;;;;5096892;28;20036;-68
2022/04/04 09:40:16;;;;;;;7.95;2.30;;;11.80;49.50;;;;;;5096859;28;20032;-68
2022/04/04 09:42:43;;;;;;;7.38;2.42;;;;;;;;;;5096492;28;20060;-69
2022/04/04 09:45:10;;;;;;;6.72;2.70;;;;;;;;;;5096687;28;20123;-67
2022/04/04 09:47:50;;;;;;;7.13;2.10;;;;;;;;;;5096399;28;20533;-67
2022/04/04 09:50:38;;;;;;;6.93;2.20;;;;;;;;;;5096555;28;20032;-67
2022/04/04 09:53:06;;;;;;;15.40;3.00;;;11.60;48.10;;;;;;5096448;28;20040;-75
2022/04/04 09:55:36;;;;;;;5.20;3.40;;;11.40;51.90;;;;;;5096395;28;20051;-75
2022/04/04 09:58:06;;;;;;;5.65;3.22;;;11.50;50.60;;;;;;5096330;28;20054;-76
2022/04/04 10:00:34;;;;;;;10.10;3.08;;;11.60;51.20;;;;;;5096409;28;20081;-75
2022/04/04 10:03:00;;;;;;;3.60;2.38;;;11.70;50.80;;;;;;5096195;28;20036;-76
2022/04/04 10:05:27;;;;;;;4.13;2.28;;;11.80;51.20;;;;;;5096274;28;20032;-75
2022/04/04 10:07:55;;;;;;;4.15;2.75;;;12.00;50.30;;;;;;5095966;28;20480;-75
2022/04/04 10:10:26;;;;;;;6.93;3.08;;;12.10;49.60;;;;;;5096206;28;20042;-75
2022/04/04 10:12:53;;;;;;;6.00;2.70;;;12.10;49.90;;;;;;5096173;28;20060;-76
2022/04/04 10:15:21;;;;;;;8.73;2.47;;;12.20;50.40;;;;;;5096193;28;20044;-75
2022/04/04 10:17:48;;;;;;;3.63;2.20;;;12.20;50.40;;;;;;5096272;28;20036;-75
2022/04/04 10:20:14;;;;;;;5.05;2.63;;;12.20;49.70;;;;;;5096193;28;20093;-74
2022/04/04 10:22:40;;;;;;;3.00;2.15;;;12.10;48.60;;;;;;5095878;28;20024;-75
2022/04/04 10:25:07;;;;;;;3.97;2.00;;;12.10;49.10;;;;;;5095830;28;20392;-76
2022/04/04 10:27:36;;;;;;;3.35;2.15;;;12.10;48.00;;;;;;5095489;28;20437;-75
2022/04/04 10:30:07;;;;;;;6.45;2.47;;;12.10;46.90;;;;;;5095145;28;20040;-75
2022/04/04 10:32:34;;;;;;;5.72;2.38;;;12.10;48.40;;;;;;5095826;28;20032;-75
2022/04/04 10:35:10;;;;;;;3.85;2.42;;;12.10;46.00;;;;;;5096047;28;20052;-75
2022/04/04 10:37:43;;;;;;;5.93;2.53;;;12.00;47.70;;;;;;5095527;28;20077;-76
2022/04/04 10:40:28;;;;;;;3.72;2.40;;;12.00;48.10;;;;;;5090168;28;20498;-76
2022/04/04 10:43:01;;;;;;;4.35;2.50;;;12.00;47.70;;;;;;5084480;28;20146;-76
2022/04/04 10:45:29;;;;;;;3.25;2.30;;;12.00;47.40;;;;;;5084081;28;20032;-75
2022/04/04 10:48:05;;;;;;;4.43;2.35;;;12.00;47.30;;;;;;5084686;28;20020;-75
2022/04/04 10:50:33;;;;;;;5.53;2.35;;;12.00;47.80;;;;;;5084063;28;20063;-75
2022/04/04 10:53:02;;;;;;;5.68;2.33;;;11.90;47.00;;;;;;5084177;28;20028;-73
2022/04/04 10:55:27;;;;;;;8.73;2.65;;;11.90;47.60;;;;;;5082913;28;20044;-73
2022/04/04 10:58:10;;;;;;;4.47;2.67;;;11.90;47.80;;;;;;5072904;28;20095;-73
2022/04/04 11:00:53;;;;;;;4.25;2.50;;;11.90;47.70;;;;;;5073126;28;20040;-73
2022/04/04 11:03:29;;;;;;;6.55;2.90;;;11.90;48.60;;;;;;5074230;28;20064;-73
2022/04/04 11:09:15;;;;;;;4.65;2.70;;;11.80;49.60;;;;;;5075288;28;20183;-73
2022/04/04 11:12:14;;;;;;;6.18;2.50;;;11.70;49.50;;;;;;5074872;28;20109;-73
2022/04/04 11:14:41;;;;;;;7.55;2.60;;;11.60;48.60;;;;;;5074805;28;20052;-73
2022/04/04 11:17:11;;;;;;;5.93;2.60;;;11.60;49.00;;;;;;5074591;28;20052;-73
2022/04/04 11:19:53;;;;;;;5.60;2.70;;;11.50;48.60;;;;;;5074576;28;20025;-73
2022/04/04 11:22:20;;;;;;;8.57;2.60;;;11.40;49.40;;;;;;5074743;28;20025;-73
2022/04/04 11:25:04;;;;;;;3.67;2.78;;;11.50;49.60;;;;;;5074748;28;20373;-73
2022/04/04 11:27:40;;;;;;;8.02;2.80;;;11.40;48.80;;;;;;5074672;28;20033;-73
2022/04/04 11:30:11;;;;;;;4.90;3.22;;;11.40;49.50;;;;;;5074656;28;20071;-73
2022/04/04 11:32:40;;;;;;;6.15;2.97;;;11.40;51.40;;;;;;5074473;28;20108;-73
2022/04/04 11:35:14;;;;;;;5.20;3.03;;;11.40;50.10;;;;;;5074284;28;20040;-73
2022/04/04 11:37:51;;;;;;;6.95;2.70;;;11.40;50.90;;;;;;5074480;28;20405;-73
2022/04/04 11:40:23;;;;;;;5.57;3.00;;;11.40;51.20;;;;;;5074424;28;20472;-73
2022/04/04 11:42:51;;;;;;;5.78;2.90;;;11.50;51.00;;;;;;5074548;28;20029;-73
2022/04/04 11:45:28;;;;;;;5.60;3.22;;;11.50;50.60;;;;;;5074221;28;20051;-73
2022/04/04 11:48:02;;;;;;;4.50;2.28;;;11.40;49.90;;;;;;5074054;28;20033;-73
2022/04/04 11:50:30;;;;;;;5.00;3.10;;;11.50;51.10;;;;;;5074068;28;20041;-73
2022/04/04 11:53:00;;;;;;;5.00;2.80;;;11.40;50.30;;;;;;5074149;28;20472;-73
2022/04/04 11:55:27;;;;;;;5.25;2.78;;;11.50;49.50;;;;;;5073982;28;20072;-73
2022/04/04 11:57:58;;;;;;;5.10;2.92;;;11.50;50.40;;;;;;5073798;28;20036;-73
2022/04/04 12:00:30;;;;;;;7.05;2.42;;;11.50;50.60;;;;;;5073920;28;20112;-72
2022/04/04 12:03:01;;;;;;;4.63;2.80;;;11.60;50.50;;;;;;5073906;28;20036;-73
2022/04/04 12:05:28;;;;;;;4.45;2.75;;;11.50;50.40;;;;;;5073849;28;20035;-73
2022/04/04 12:07:54;;;;;;;6.68;2.90;;;11.60;50.10;;;;;;5073852;28;20534;-74
2022/04/04 12:10:31;;;;;;;5.18;2.80;;;11.60;50.40;;;;;;5073813;28;20068;-73
2022/04/04 12:13:11;;;;;;;4.10;2.58;;;11.60;49.70;;;;;;5073403;28;20374;-73
2022/04/04 12:15:40;;;;;;;4.00;2.47;;;11.60;50.10;;;;;;5073532;28;20488;-73
2022/04/04 12:18:09;;;;;;;4.97;3.10;;;11.60;50.30;;;;;;5073689;28;20036;-73
2022/04/04 12:20:36;;;;;;;5.53;2.75;;;11.60;50.40;;;;;;5073622;28;20043;-73
2022/04/04 12:25:47;;;;;;;5.50;3.13;;;11.60;52.10;;;;;;5073687;28;20036;-74
2022/04/04 12:28:32;;;;;;;8.80;3.28;;;11.60;51.80;;;;;;5073538;28;20028;-73
2022/04/04 12:31:09;;;;;;;7.03;3.85;;;11.60;52.00;;;;;;5073260;28;20025;-73
2022/04/04 12:33:34;;;;;;;7.03;3.20;;;11.60;51.50;;;;;;5073359;28;20040;-73
2022/04/04 12:36:01;;;;;;;7.22;3.25;;;11.60;52.30;;;;;;5073475;28;20440;-73
2022/04/04 12:38:30;;;;;;;7.45;3.22;;;11.70;52.10;;;;;;5073333;28;20040;-73
2022/04/04 12:41:02;;;;;;;9.25;3.55;;;11.70;51.00;;;;;;5073410;28;20558;-72
2022/04/04 12:43:27;;;;;;;8.32;3.42;;;11.70;52.40;;;;;;5073348;28;20484;-73
2022/04/04 12:45:53;;;;;;;7.70;3.10;;;11.80;52.20;;;;;;5072689;28;20047;-73
2022/04/04 12:48:19;;;;;;;4.30;3.00;;;11.80;53.00;;;;;;5072898;28;20041;-73
2022/04/04 12:50:50;;;;;;;5.00;3.03;;;11.80;52.00;;;;;;5072824;28;20032;-73
2022/04/04 12:53:19;;;;;;;5.03;3.60;;;11.80;52.40;;;;;;5072728;28;20523;-73
2022/04/04 12:56:08;;;;;;;7.00;3.00;;;11.70;52.20;;;;;;5070798;28;20045;-73
2022/04/04 12:58:34;;;;;;;5.10;3.08;;;11.70;51.90;;;;;;5073109;28;20110;-73
2022/04/04 13:01:17;;;;;;;6.80;3.55;;;11.60;52.30;;;;;;5073055;28;20033;-72
2022/04/04 13:03:50;;;;;;;6.53;3.40;;;11.60;52.90;;;;;;5072568;28;20028;-73
2022/04/04 13:06:17;;;;;;;6.30;2.97;;;11.60;51.90;;;;;;5073138;28;20044;-73
2022/04/04 13:08:56;;;;;;;6.60;3.65;;;11.60;52.50;;;;;;5072198;28;20068;-73
2022/04/04 13:11:24;;;;;;;5.47;3.20;;;11.60;52.40;;;;;;5072476;28;20599;-73